Time,TemperatureF,DewpointF,PressureIn,WindDirection,WindDirectionDegrees,WindSpeedMPH,WindSpeedGustMPH,Humidity,HourlyPrecipIn,Conditions,Clouds,dailyrainin,SoftwareType,DateUTC
2013-03-06 00:00:00,36.2,31.8,29.83,NNE,22,5.0,13.0,84,0.00,,,0.00,Wunderground v.1.15,2013-03-06 05:00:00,
2013-03-06 00:05:00,35.9,31.5,29.83,NE,40,9.0,13.0,84,0.00,,,0.00,Wunderground v.1.15,2013-03-06 05:05:00,
2013-03-06 00:10:00,35.6,31.5,29.82,ENE,66,5.0,6.0,85,0.00,,,0.00,Wunderground v.1.15,2013-03-06 05:10:00,
2013-03-06 00:15:00,35.2,31.4,29.82,ESE,103,13.0,17.0,86,0.00,,,0.00,Wunderground v.1.15,2013-03-06 05:15:00,
2013-03-06 00:20:00,34.8,31.3,29.81,ENE,59,6.0,11.0,87,0.00,,,0.00,Wunderground v.1.15,2013-03-06 05:20:00,
2013-03-06 00:25:00,34.5,31.3,29.81,NE,51,4.0,11.0,88,0.00,,,0.00,Wunderground v.1.15,2013-03-06 05:25:00,
2013-03-06 00:30:00,34.2,31.3,29.80,NE,37,2.0,6.0,89,0.00,,,0.00,Wunderground v.1.15,2013-03-06 05:30:00,
2013-03-06 00:35:00,34.0,31.4,29.80,ENE,64,5.0,13.0,90,0.00,,,0.00,Wunderground v.1.15,2013-03-06 05:35:00,
2013-03-06 00:40:00,33.9,31.3,29.80,NNE,25,3.0,5.0,90,0.00,,,0.00,Wunderground v.1.15,2013-03-06 05:40:00,
2013-03-06 00:45:00,33.8,31.5,29.79,NE,51,2.0,8.0,91,0.00,,,0.00,Wunderground v.1.15,2013-03-06 05:45:00,
2013-03-06 00:50:00,33.7,31.4,29.79,NNE,18,2.0,4.0,91,0.00,,,0.00,Wunderground v.1.15,2013-03-06 05:50:00,
2013-03-06 00:55:00,33.7,31.4,29.79,NNE,32,3.0,7.0,91,0.00,,,0.00,Wunderground v.1.15,2013-03-06 05:55:00,
2013-03-06 01:00:00,33.6,31.5,29.79,NNE,20,2.0,4.0,92,0.00,,,0.00,Wunderground v.1.15,2013-03-06 06:00:00,
2013-03-06 01:05:00,33.6,31.5,29.79,NE,54,8.0,14.0,92,0.00,,,0.00,Wunderground v.1.15,2013-03-06 06:05:00,
2013-03-06 01:10:00,33.5,31.4,29.78,NNE,32,2.0,6.0,92,0.00,,,0.00,Wunderground v.1.15,2013-03-06 06:10:00,
2013-03-06 01:15:00,33.5,31.4,29.77,NNE,27,8.0,9.0,92,0.00,,,0.00,Wunderground v.1.15,2013-03-06 06:15:00,
2013-03-06 01:20:00,33.4,31.6,29.77,North,349,3.0,4.0,93,0.00,,,0.00,Wunderground v.1.15,2013-03-06 06:20:00,
2013-03-06 01:25:00,33.4,31.6,29.76,NNE,16,2.0,8.0,93,0.00,,,0.00,Wunderground v.1.15,2013-03-06 06:25:00,
2013-03-06 01:30:00,33.3,31.5,29.76,North,352,4.0,15.0,93,0.00,,,0.00,Wunderground v.1.15,2013-03-06 06:30:00,
2013-03-06 01:35:00,33.3,31.5,29.76,NE,34,3.0,15.0,93,0.00,,,0.00,Wunderground v.1.15,2013-03-06 06:35:00,
2013-03-06 01:40:00,33.3,31.5,29.75,North,7,2.0,6.0,93,0.00,,,0.00,Wunderground v.1.15,2013-03-06 06:40:00,
2013-03-06 01:45:00,33.3,31.5,29.75,NE,49,3.0,9.0,93,0.00,,,0.00,Wunderground v.1.15,2013-03-06 06:45:00,
2013-03-06 01:50:00,33.3,31.5,29.74,ENE,66,5.0,11.0,93,0.00,,,0.00,Wunderground v.1.15,2013-03-06 06:50:00,
2013-03-06 01:55:00,33.2,31.4,29.74,ENE,66,3.0,13.0,93,0.00,,,0.00,Wunderground v.1.15,2013-03-06 06:55:00,
2013-03-06 02:01:00,33.2,31.7,29.74,NE,46,3.0,7.0,94,0.00,,,0.00,Wunderground v.1.15,2013-03-06 07:01:00,
2013-03-06 02:06:00,33.2,31.7,29.74,NE,50,2.0,9.0,94,0.00,,,0.00,Wunderground v.1.15,2013-03-06 07:06:00,
2013-03-06 02:11:00,33.2,31.7,29.73,NNW,344,3.0,10.0,94,0.00,,,0.00,Wunderground v.1.15,2013-03-06 07:11:00,
2013-03-06 02:16:00,33.2,31.7,29.73,ENE,57,10.0,14.0,94,0.00,,,0.00,Wunderground v.1.15,2013-03-06 07:16:00,
2013-03-06 02:21:00,33.2,31.7,29.73,NNE,17,3.0,6.0,94,0.00,,,0.00,Wunderground v.1.15,2013-03-06 07:21:00,
2013-03-06 02:26:00,33.2,31.7,29.73,NE,42,5.0,13.0,94,0.00,,,0.00,Wunderground v.1.15,2013-03-06 07:26:00,
2013-03-06 02:31:00,33.2,31.7,29.74,NE,55,0.0,6.0,94,0.00,,,0.00,Wunderground v.1.15,2013-03-06 07:31:00,
2013-03-06 02:36:00,33.2,31.7,29.74,ENE,73,8.0,8.0,94,0.00,,,0.00,Wunderground v.1.15,2013-03-06 07:36:00,
2013-03-06 02:41:00,33.2,31.7,29.74,NNE,31,3.0,5.0,94,0.00,,,0.00,Wunderground v.1.15,2013-03-06 07:41:00,
2013-03-06 02:46:00,33.3,31.8,29.73,NE,38,5.0,11.0,94,0.00,,,0.00,Wunderground v.1.15,2013-03-06 07:46:00,
2013-03-06 02:51:00,33.2,31.7,29.73,ENE,72,5.0,5.0,94,0.00,,,0.00,Wunderground v.1.15,2013-03-06 07:51:00,
2013-03-06 02:56:00,33.3,31.8,29.72,North,360,3.0,7.0,94,0.00,,,0.00,Wunderground v.1.15,2013-03-06 07:56:00,
2013-03-06 03:01:00,33.3,31.8,29.71,NE,42,0.0,2.0,94,0.00,,,0.00,Wunderground v.1.15,2013-03-06 08:01:00,
2013-03-06 03:06:00,33.2,31.7,29.70,North,350,3.0,4.0,94,0.00,,,0.00,Wunderground v.1.15,2013-03-06 08:06:00,
2013-03-06 03:11:00,33.3,31.8,29.70,NE,53,2.0,3.0,94,0.00,,,0.00,Wunderground v.1.15,2013-03-06 08:11:00,
2013-03-06 03:16:00,33.3,31.8,29.69,NNE,16,1.0,4.0,94,0.00,,,0.00,Wunderground v.1.15,2013-03-06 08:16:00,
2013-03-06 03:21:00,33.2,31.9,29.68,NE,46,1.0,4.0,95,0.00,,,0.00,Wunderground v.1.15,2013-03-06 08:21:00,
2013-03-06 03:26:00,33.2,31.9,29.68,North,359,2.0,4.0,95,0.00,,,0.00,Wunderground v.1.15,2013-03-06 08:26:00,
2013-03-06 03:31:00,33.2,31.9,29.67,NW,312,2.0,2.0,95,0.00,,,0.00,Wunderground v.1.15,2013-03-06 08:31:00,
2013-03-06 03:36:00,33.3,32.0,29.67,North,6,1.0,4.0,95,0.00,,,0.00,Wunderground v.1.15,2013-03-06 08:36:00,
2013-03-06 03:41:00,33.3,32.0,29.67,NE,40,2.0,3.0,95,0.00,,,0.00,Wunderground v.1.15,2013-03-06 08:41:00,
2013-03-06 03:46:00,33.3,32.0,29.67,NNW,345,3.0,7.0,95,0.00,,,0.00,Wunderground v.1.15,2013-03-06 08:46:00,
2013-03-06 03:51:00,33.3,32.0,29.67,North,9,2.0,2.0,95,0.00,,,0.00,Wunderground v.1.15,2013-03-06 08:51:00,
2013-03-06 03:56:00,33.3,32.0,29.66,NNE,22,1.0,6.0,95,0.00,,,0.00,Wunderground v.1.15,2013-03-06 08:56:00,
2013-03-06 04:01:00,33.4,32.1,29.66,NE,53,2.0,5.0,95,0.00,,,0.00,Wunderground v.1.15,2013-03-06 09:01:00,
2013-03-06 04:06:00,33.3,32.0,29.66,North,11,0.0,5.0,95,0.00,,,0.00,Wunderground v.1.15,2013-03-06 09:06:00,
2013-03-06 04:11:00,33.3,32.0,29.66,NNE,23,1.0,3.0,95,0.00,,,0.00,Wunderground v.1.15,2013-03-06 09:11:00,
2013-03-06 04:16:00,33.4,32.1,29.66,ENE,65,2.0,5.0,95,0.00,,,0.00,Wunderground v.1.15,2013-03-06 09:16:00,
2013-03-06 04:21:00,33.4,32.1,29.66,NNE,25,3.0,4.0,95,0.00,,,0.00,Wunderground v.1.15,2013-03-06 09:21:00,
2013-03-06 04:26:00,33.4,32.1,29.66,NE,34,3.0,4.0,95,0.00,,,0.00,Wunderground v.1.15,2013-03-06 09:26:00,
2013-03-06 04:31:00,33.4,32.1,29.66,NNE,26,1.0,2.0,95,0.00,,,0.00,Wunderground v.1.15,2013-03-06 09:31:00,
2013-03-06 04:36:00,33.4,32.1,29.66,NE,37,0.0,5.0,95,0.00,,,0.00,Wunderground v.1.15,2013-03-06 09:36:00,
2013-03-06 04:41:00,33.4,32.1,29.66,North,357,1.0,5.0,95,0.00,,,0.00,Wunderground v.1.15,2013-03-06 09:41:00,
2013-03-06 04:46:00,33.4,32.1,29.65,NE,44,2.0,5.0,95,0.00,,,0.00,Wunderground v.1.15,2013-03-06 09:46:00,
2013-03-06 04:51:00,33.4,32.1,29.65,NE,48,2.0,3.0,95,0.00,,,0.00,Wunderground v.1.15,2013-03-06 09:51:00,
2013-03-06 04:56:00,33.4,32.1,29.65,NE,53,1.0,5.0,95,0.00,,,0.00,Wunderground v.1.15,2013-03-06 09:56:00,
2013-03-06 05:01:00,33.4,32.1,29.65,North,9,2.0,2.0,95,0.00,,,0.00,Wunderground v.1.15,2013-03-06 10:01:00,
2013-03-06 05:06:00,33.4,32.1,29.65,NNE,21,1.0,4.0,95,0.00,,,0.00,Wunderground v.1.15,2013-03-06 10:06:00,
2013-03-06 05:11:00,33.4,32.1,29.65,NW,317,1.0,2.0,95,0.00,,,0.00,Wunderground v.1.15,2013-03-06 10:11:00,
2013-03-06 05:16:00,33.4,32.1,29.65,NNW,330,1.0,4.0,95,0.00,,,0.00,Wunderground v.1.15,2013-03-06 10:16:00,
2013-03-06 05:21:00,33.4,32.1,29.65,NNW,340,2.0,5.0,95,0.00,,,0.00,Wunderground v.1.15,2013-03-06 10:21:00,
2013-03-06 05:26:00,33.4,32.1,29.65,East,84,1.0,5.0,95,0.00,,,0.00,Wunderground v.1.15,2013-03-06 10:26:00,
2013-03-06 05:31:00,33.4,32.1,29.65,NNW,330,2.0,4.0,95,0.00,,,0.00,Wunderground v.1.15,2013-03-06 10:31:00,
2013-03-06 05:36:00,33.4,32.1,29.65,NW,321,2.0,5.0,95,0.00,,,0.00,Wunderground v.1.15,2013-03-06 10:36:00,
2013-03-06 05:41:00,33.4,32.1,29.65,NNE,21,1.0,3.0,95,0.00,,,0.00,Wunderground v.1.15,2013-03-06 10:41:00,
2013-03-06 05:46:00,33.4,32.1,29.64,NNW,344,2.0,5.0,95,0.00,,,0.00,Wunderground v.1.15,2013-03-06 10:46:00,
2013-03-06 05:51:00,33.4,32.1,29.64,North,8,3.0,4.0,95,0.00,,,0.00,Wunderground v.1.15,2013-03-06 10:51:00,
2013-03-06 05:56:00,33.4,32.1,29.63,North,359,2.0,4.0,95,0.00,,,0.00,Wunderground v.1.15,2013-03-06 10:56:00,
2013-03-06 06:01:00,33.4,32.4,29.64,NNE,16,1.0,2.0,96,0.00,,,0.00,Wunderground v.1.15,2013-03-06 11:01:00,
2013-03-06 06:06:00,33.5,32.5,29.63,NNW,340,2.0,4.0,96,0.00,,,0.00,Wunderground v.1.15,2013-03-06 11:06:00,
2013-03-06 06:11:00,33.5,32.5,29.63,NW,326,1.0,2.0,96,0.00,,,0.00,Wunderground v.1.15,2013-03-06 11:11:00,
2013-03-06 06:16:00,33.5,32.2,29.63,North,349,1.0,3.0,95,0.00,,,0.00,Wunderground v.1.15,2013-03-06 11:16:00,
2013-03-06 06:21:00,33.5,32.2,29.63,North,3,1.0,3.0,95,0.00,,,0.00,Wunderground v.1.15,2013-03-06 11:21:00,
2013-03-06 06:26:00,33.5,32.2,29.63,NNW,345,1.0,5.0,95,0.00,,,0.00,Wunderground v.1.15,2013-03-06 11:26:00,
2013-03-06 06:31:00,33.5,32.2,29.63,NNW,340,0.0,2.0,95,0.00,,,0.00,Wunderground v.1.15,2013-03-06 11:31:00,
2013-03-06 06:36:00,33.5,32.2,29.63,North,350,0.0,4.0,95,0.00,,,0.00,Wunderground v.1.15,2013-03-06 11:36:00,
2013-03-06 06:41:00,33.5,32.2,29.62,NW,320,0.0,1.0,95,0.00,,,0.00,Wunderground v.1.15,2013-03-06 11:41:00,
2013-03-06 06:46:00,33.5,32.2,29.62,ENE,59,2.0,3.0,95,0.00,,,0.00,Wunderground v.1.15,2013-03-06 11:46:00,
2013-03-06 06:51:00,33.6,32.6,29.62,North,357,1.0,2.0,96,0.00,,,0.00,Wunderground v.1.15,2013-03-06 11:51:00,
2013-03-06 06:56:00,33.7,32.7,29.62,NW,326,0.0,3.0,96,0.00,,,0.00,Wunderground v.1.15,2013-03-06 11:56:00,
2013-03-06 07:01:00,33.7,32.7,29.62,NNW,344,1.0,3.0,96,0.00,,,0.00,Wunderground v.1.15,2013-03-06 12:01:00,
2013-03-06 07:06:00,33.8,32.8,29.62,North,2,1.0,3.0,96,0.00,,,0.00,Wunderground v.1.15,2013-03-06 12:06:00,
2013-03-06 07:12:00,33.8,32.8,29.61,NNW,340,1.0,1.0,96,0.00,,,0.00,Wunderground v.1.15,2013-03-06 12:12:00,
2013-03-06 07:17:00,33.9,32.9,29.62,NNW,348,4.0,7.0,96,0.00,,,0.00,Wunderground v.1.15,2013-03-06 12:17:00,
2013-03-06 07:22:00,34.0,33.0,29.63,North,354,2.0,3.0,96,0.00,,,0.00,Wunderground v.1.15,2013-03-06 12:22:00,
2013-03-06 07:27:00,34.0,33.0,29.62,WNW,288,2.0,6.0,96,0.00,,,0.00,Wunderground v.1.15,2013-03-06 12:27:00,
2013-03-06 07:32:00,34.0,33.0,29.62,North,1,3.0,6.0,96,0.00,,,0.00,Wunderground v.1.15,2013-03-06 12:32:00,
2013-03-06 07:37:00,34.1,33.1,29.63,NNW,345,3.0,6.0,96,0.00,,,0.00,Wunderground v.1.15,2013-03-06 12:37:00,
2013-03-06 07:42:00,34.1,33.1,29.63,NNW,345,3.0,7.0,96,0.00,,,0.00,Wunderground v.1.15,2013-03-06 12:42:00,
2013-03-06 07:47:00,34.1,33.1,29.63,NNE,28,4.0,10.0,96,0.00,,,0.00,Wunderground v.1.15,2013-03-06 12:47:00,
2013-03-06 07:52:00,34.1,33.1,29.63,NNW,346,1.0,4.0,96,0.00,,,0.00,Wunderground v.1.15,2013-03-06 12:52:00,
2013-03-06 07:57:00,34.0,33.0,29.63,North,350,2.0,11.0,96,0.00,,,0.00,Wunderground v.1.15,2013-03-06 12:57:00,
2013-03-06 08:02:00,34.0,33.0,29.63,NW,323,2.0,5.0,96,0.00,,,0.00,Wunderground v.1.15,2013-03-06 13:02:00,
2013-03-06 08:08:00,34.0,33.0,29.63,NNW,340,2.0,6.0,96,0.00,,,0.00,Wunderground v.1.15,2013-03-06 13:08:00,
2013-03-06 08:12:00,34.0,33.0,29.63,NW,308,2.0,9.0,96,0.00,,,0.00,Wunderground v.1.15,2013-03-06 13:12:00,
2013-03-06 08:17:00,34.1,33.1,29.63,NE,44,3.0,9.0,96,0.00,,,0.00,Wunderground v.1.15,2013-03-06 13:17:00,
2013-03-06 08:22:00,34.1,33.1,29.63,NNW,335,1.0,4.0,96,0.00,,,0.00,Wunderground v.1.15,2013-03-06 13:22:00,
2013-03-06 08:28:00,34.1,33.1,29.63,NNW,340,2.0,8.0,96,0.00,,,0.00,Wunderground v.1.15,2013-03-06 13:28:00,
2013-03-06 08:33:00,34.0,33.0,29.63,NE,49,2.0,6.0,96,0.00,,,0.00,Wunderground v.1.15,2013-03-06 13:33:00,
2013-03-06 08:38:00,33.9,32.9,29.63,West,259,3.0,6.0,96,0.00,,,0.00,Wunderground v.1.15,2013-03-06 13:38:00,
2013-03-06 08:43:00,33.8,32.8,29.63,NW,320,2.0,4.0,96,0.00,,,0.00,Wunderground v.1.15,2013-03-06 13:43:00,
2013-03-06 08:48:00,33.7,32.7,29.63,NW,313,1.0,5.0,96,0.00,,,0.00,Wunderground v.1.15,2013-03-06 13:48:00,
2013-03-06 08:53:00,33.7,32.7,29.63,NNW,330,3.0,4.0,96,0.00,,,0.00,Wunderground v.1.15,2013-03-06 13:53:00,
2013-03-06 08:58:00,33.7,32.7,29.63,NNW,330,4.0,5.0,96,0.00,,,0.00,Wunderground v.1.15,2013-03-06 13:58:00,
2013-03-06 09:03:00,33.7,32.7,29.63,NW,317,4.0,4.0,96,0.00,,,0.00,Wunderground v.1.15,2013-03-06 14:03:00,
2013-03-06 09:08:00,33.6,32.6,29.63,NNW,346,2.0,6.0,96,0.00,,,0.00,Wunderground v.1.15,2013-03-06 14:08:00,
2013-03-06 09:13:00,33.5,32.5,29.63,NW,314,6.0,8.0,96,0.00,,,0.00,Wunderground v.1.15,2013-03-06 14:13:00,
2013-03-06 09:18:00,33.5,32.5,29.63,NW,319,2.0,8.0,96,0.00,,,0.00,Wunderground v.1.15,2013-03-06 14:18:00,
2013-03-06 09:23:00,33.5,32.5,29.64,NW,325,1.0,4.0,96,0.00,,,0.00,Wunderground v.1.15,2013-03-06 14:23:00,
2013-03-06 09:28:00,33.5,32.5,29.64,WNW,302,3.0,6.0,96,0.00,,,0.00,Wunderground v.1.15,2013-03-06 14:28:00,
2013-03-06 09:33:00,33.5,32.5,29.64,WNW,294,3.0,3.0,96,0.00,,,0.00,Wunderground v.1.15,2013-03-06 14:33:00,
2013-03-06 09:38:00,33.5,32.5,29.64,NW,311,2.0,4.0,96,0.00,,,0.00,Wunderground v.1.15,2013-03-06 14:38:00,
2013-03-06 09:43:00,33.5,32.5,29.64,NNW,330,2.0,3.0,96,0.00,,,0.00,Wunderground v.1.15,2013-03-06 14:43:00,
2013-03-06 09:48:00,33.5,32.5,29.64,NW,323,0.0,4.0,96,0.00,,,0.00,Wunderground v.1.15,2013-03-06 14:48:00,
2013-03-06 09:53:00,33.4,32.4,29.64,NW,310,0.0,3.0,96,0.00,,,0.00,Wunderground v.1.15,2013-03-06 14:53:00,
2013-03-06 09:58:00,33.5,32.5,29.64,NW,313,2.0,3.0,96,0.00,,,0.00,Wunderground v.1.15,2013-03-06 14:58:00,
2013-03-06 10:03:00,33.4,32.4,29.64,NW,319,0.0,2.0,96,0.00,,,0.00,Wunderground v.1.15,2013-03-06 15:03:00,
2013-03-06 10:08:00,33.4,32.4,29.64,NW,311,0.0,2.0,96,0.00,,,0.01,Wunderground v.1.15,2013-03-06 15:08:00,
2013-03-06 10:13:00,33.4,32.4,29.64,NW,324,0.0,2.0,96,0.00,,,0.01,Wunderground v.1.15,2013-03-06 15:13:00,
2013-03-06 10:18:00,33.5,32.5,29.65,NNW,330,1.0,4.0,96,0.00,,,0.01,Wunderground v.1.15,2013-03-06 15:18:00,
2013-03-06 10:23:00,33.5,32.5,29.65,NW,316,0.0,2.0,96,0.00,,,0.01,Wunderground v.1.15,2013-03-06 15:23:00,
2013-03-06 10:28:00,33.4,32.4,29.65,NW,311,0.0,2.0,96,0.00,,,0.01,Wunderground v.1.15,2013-03-06 15:28:00,
2013-03-06 10:33:00,33.5,32.5,29.65,WNW,299,0.0,0.0,96,0.00,,,0.01,Wunderground v.1.15,2013-03-06 15:33:00,
2013-03-06 10:38:00,33.4,32.4,29.65,NW,312,0.0,0.0,96,0.00,,,0.01,Wunderground v.1.15,2013-03-06 15:38:00,
2013-03-06 10:43:00,33.5,32.5,29.64,NW,322,1.0,4.0,96,0.00,,,0.01,Wunderground v.1.15,2013-03-06 15:43:00,
2013-03-06 10:48:00,33.4,32.4,29.64,North,1,0.0,4.0,96,0.00,,,0.01,Wunderground v.1.15,2013-03-06 15:48:00,
2013-03-06 10:53:00,33.5,32.5,29.64,WNW,303,0.0,0.0,96,0.00,,,0.01,Wunderground v.1.15,2013-03-06 15:53:00,
2013-03-06 10:59:00,33.6,32.6,29.64,NW,311,0.0,0.0,96,0.00,,,0.01,Wunderground v.1.15,2013-03-06 15:59:00,
2013-03-06 11:04:00,33.7,32.7,29.64,WNW,299,0.0,0.0,96,0.00,,,0.01,Wunderground v.1.15,2013-03-06 16:04:00,
2013-03-06 11:09:00,33.7,32.7,29.64,NW,324,0.0,0.0,96,0.00,,,0.01,Wunderground v.1.15,2013-03-06 16:09:00,
2013-03-06 11:14:00,33.8,32.8,29.64,WNW,297,0.0,0.0,96,0.00,,,0.01,Wunderground v.1.15,2013-03-06 16:14:00,
2013-03-06 11:19:00,33.9,32.9,29.65,NW,323,5.0,15.0,96,0.00,,,0.01,Wunderground v.1.15,2013-03-06 16:19:00,
2013-03-06 11:24:00,33.9,32.9,29.65,WNW,288,5.0,8.0,96,0.00,,,0.01,Wunderground v.1.15,2013-03-06 16:24:00,
2013-03-06 11:29:00,34.0,33.0,29.65,NW,304,3.0,11.0,96,0.00,,,0.01,Wunderground v.1.15,2013-03-06 16:29:00,
2013-03-06 11:34:00,34.1,33.1,29.65,NW,314,4.0,8.0,96,0.00,,,0.01,Wunderground v.1.15,2013-03-06 16:34:00,
2013-03-06 11:39:00,34.2,33.2,29.65,WNW,301,6.0,13.0,96,0.00,,,0.01,Wunderground v.1.15,2013-03-06 16:39:00,
2013-03-06 11:44:00,34.3,33.3,29.65,WNW,298,5.0,9.0,96,0.00,,,0.01,Wunderground v.1.15,2013-03-06 16:44:00,
2013-03-06 11:49:00,34.3,33.3,29.65,NW,319,6.0,9.0,96,0.00,,,0.01,Wunderground v.1.15,2013-03-06 16:49:00,
2013-03-06 11:54:00,34.4,33.4,29.65,NNW,330,8.0,15.0,96,0.00,,,0.01,Wunderground v.1.15,2013-03-06 16:54:00,
2013-03-06 11:59:00,34.4,33.4,29.65,NW,321,8.0,16.0,96,0.00,,,0.02,Wunderground v.1.15,2013-03-06 16:59:00,
2013-03-06 12:04:00,34.5,33.5,29.65,West,281,13.0,13.0,96,0.00,,,0.02,Wunderground v.1.15,2013-03-06 17:04:00,
2013-03-06 12:09:00,34.7,33.7,29.65,NW,325,9.0,18.0,96,0.00,,,0.02,Wunderground v.1.15,2013-03-06 17:09:00,
2013-03-06 12:14:00,34.7,33.7,29.65,West,279,9.0,12.0,96,0.04,,,0.03,Wunderground v.1.15,2013-03-06 17:14:00,
2013-03-06 12:19:00,34.7,33.7,29.65,NW,308,4.0,14.0,96,0.04,,,0.03,Wunderground v.1.15,2013-03-06 17:19:00,
2013-03-06 12:24:00,34.7,33.7,29.66,WNW,298,11.0,20.0,96,0.04,,,0.03,Wunderground v.1.15,2013-03-06 17:24:00,
2013-03-06 12:29:00,34.6,33.6,29.66,West,261,7.0,20.0,96,0.05,,,0.04,Wunderground v.1.15,2013-03-06 17:29:00,
2013-03-06 12:34:00,34.5,33.5,29.67,WNW,298,6.0,14.0,96,0.05,,,0.04,Wunderground v.1.15,2013-03-06 17:34:00,
2013-03-06 12:39:00,34.4,33.4,29.66,NNW,340,5.0,17.0,96,0.06,,,0.05,Wunderground v.1.15,2013-03-06 17:39:00,
2013-03-06 12:44:00,34.4,33.4,29.67,NNW,340,8.0,15.0,96,0.06,,,0.05,Wunderground v.1.15,2013-03-06 17:44:00,
2013-03-06 12:49:00,34.4,33.4,29.67,NW,313,8.0,15.0,96,0.05,,,0.06,Wunderground v.1.15,2013-03-06 17:49:00,
2013-03-06 12:54:00,34.3,33.3,29.66,WNW,301,8.0,20.0,96,0.05,,,0.06,Wunderground v.1.15,2013-03-06 17:54:00,
2013-03-06 12:59:00,34.2,33.2,29.67,WNW,302,5.0,20.0,96,0.05,,,0.07,Wunderground v.1.15,2013-03-06 17:59:00,
2013-03-06 13:04:00,34.3,33.3,29.67,NW,306,12.0,16.0,96,0.05,,,0.07,Wunderground v.1.15,2013-03-06 18:04:00,
2013-03-06 13:09:00,34.3,33.3,29.67,West,265,6.0,17.0,96,0.06,,,0.08,Wunderground v.1.15,2013-03-06 18:09:00,
2013-03-06 13:14:00,34.4,33.4,29.67,West,267,7.0,19.0,96,0.06,,,0.08,Wunderground v.1.15,2013-03-06 18:14:00,
2013-03-06 13:19:00,34.5,33.5,29.68,WNW,285,10.0,19.0,96,0.08,,,0.09,Wunderground v.1.15,2013-03-06 18:19:00,
2013-03-06 13:24:00,34.6,33.6,29.68,NNW,340,5.0,14.0,96,0.07,,,0.10,Wunderground v.1.15,2013-03-06 18:24:00,
2013-03-06 13:29:00,34.6,33.6,29.69,NW,305,8.0,17.0,96,0.07,,,0.10,Wunderground v.1.15,2013-03-06 18:29:00,
2013-03-06 13:34:00,34.6,33.3,29.69,NW,314,9.0,13.0,95,0.07,,,0.11,Wunderground v.1.15,2013-03-06 18:34:00,
2013-03-06 13:40:00,34.7,33.4,29.69,West,278,5.0,9.0,95,0.07,,,0.11,Wunderground v.1.15,2013-03-06 18:40:00,
2013-03-06 13:45:00,34.7,33.4,29.70,WNW,294,10.0,19.0,95,0.06,,,0.12,Wunderground v.1.15,2013-03-06 18:45:00,
2013-03-06 13:50:00,34.7,33.4,29.70,WNW,303,15.0,15.0,95,0.07,,,0.12,Wunderground v.1.15,2013-03-06 18:50:00,
2013-03-06 13:55:00,34.7,33.4,29.70,NW,313,17.0,21.0,95,0.07,,,0.13,Wunderground v.1.15,2013-03-06 18:55:00,
2013-03-06 14:00:00,34.7,33.7,29.70,NW,309,7.0,10.0,96,0.07,,,0.14,Wunderground v.1.15,2013-03-06 19:00:00,
2013-03-06 14:05:00,34.7,33.4,29.71,NNW,340,7.0,16.0,95,0.07,,,0.14,Wunderground v.1.15,2013-03-06 19:05:00,
2013-03-06 14:10:00,34.8,33.5,29.71,West,259,6.0,10.0,95,0.07,,,0.15,Wunderground v.1.15,2013-03-06 19:10:00,
2013-03-06 14:15:00,34.8,33.5,29.71,NNW,335,10.0,14.0,95,0.07,,,0.15,Wunderground v.1.15,2013-03-06 19:15:00,
2013-03-06 14:20:00,34.9,33.6,29.71,NW,313,7.0,8.0,95,0.07,,,0.16,Wunderground v.1.15,2013-03-06 19:20:00,
2013-03-06 14:25:00,35.0,33.7,29.72,WNW,303,7.0,14.0,95,0.08,,,0.17,Wunderground v.1.15,2013-03-06 19:25:00,
2013-03-06 14:30:00,35.2,33.9,29.72,NW,306,12.0,15.0,95,0.08,,,0.17,Wunderground v.1.15,2013-03-06 19:30:00,
2013-03-06 14:35:00,35.3,34.0,29.73,NNW,330,5.0,18.0,95,0.07,,,0.18,Wunderground v.1.15,2013-03-06 19:35:00,
2013-03-06 14:40:00,35.3,34.0,29.75,WNW,294,8.0,15.0,95,0.08,,,0.19,Wunderground v.1.15,2013-03-06 19:40:00,
2013-03-06 14:45:00,35.4,34.1,29.74,NW,323,14.0,24.0,95,0.10,,,0.20,Wunderground v.1.15,2013-03-06 19:45:00,
2013-03-06 14:50:00,35.5,34.2,29.74,West,278,13.0,13.0,95,0.10,,,0.20,Wunderground v.1.15,2013-03-06 19:50:00,
2013-03-06 14:55:00,35.6,34.3,29.75,SSW,204,9.0,20.0,95,0.08,,,0.21,Wunderground v.1.15,2013-03-06 19:55:00,
2013-03-06 15:00:00,35.7,34.4,29.76,West,267,13.0,23.0,95,0.08,,,0.22,Wunderground v.1.15,2013-03-06 20:00:00,
2013-03-06 15:06:00,35.7,34.4,29.76,WNW,286,12.0,27.0,95,0.08,,,0.22,Wunderground v.1.15,2013-03-06 20:06:00,
2013-03-06 15:11:00,35.8,34.2,29.77,WNW,296,6.0,15.0,94,0.08,,,0.23,Wunderground v.1.15,2013-03-06 20:11:00,
2013-03-06 15:16:00,35.8,34.2,29.77,NW,312,7.0,15.0,94,0.08,,,0.24,Wunderground v.1.15,2013-03-06 20:16:00,
2013-03-06 15:21:00,35.9,34.3,29.77,West,269,9.0,18.0,94,0.08,,,0.24,Wunderground v.1.15,2013-03-06 20:21:00,
2013-03-06 15:26:00,35.9,34.3,29.77,WNW,294,7.0,27.0,94,0.08,,,0.25,Wunderground v.1.15,2013-03-06 20:26:00,
2013-03-06 15:31:00,36.1,34.5,29.78,North,352,6.0,13.0,94,0.09,,,0.26,Wunderground v.1.15,2013-03-06 20:31:00,
2013-03-06 15:36:00,36.1,34.5,29.79,NW,314,3.0,13.0,94,0.09,,,0.26,Wunderground v.1.15,2013-03-06 20:36:00,
2013-03-06 15:41:00,36.2,34.6,29.80,WNW,300,4.0,11.0,94,0.07,,,0.27,Wunderground v.1.15,2013-03-06 20:41:00,
2013-03-06 15:46:00,36.3,34.7,29.80,NW,324,7.0,22.0,94,0.07,,,0.28,Wunderground v.1.15,2013-03-06 20:46:00,
2013-03-06 15:51:00,36.2,34.6,29.80,WNW,293,11.0,15.0,94,0.07,,,0.28,Wunderground v.1.15,2013-03-06 20:51:00,
2013-03-06 15:56:00,36.3,34.7,29.80,WNW,286,8.0,17.0,94,0.07,,,0.29,Wunderground v.1.15,2013-03-06 20:56:00,
2013-03-06 16:01:00,36.4,34.8,29.81,WNW,284,7.0,14.0,94,0.07,,,0.29,Wunderground v.1.15,2013-03-06 21:01:00,
2013-03-06 16:06:00,36.4,34.8,29.82,WNW,290,14.0,24.0,94,0.07,,,0.30,Wunderground v.1.15,2013-03-06 21:06:00,
2013-03-06 16:11:00,36.4,34.8,29.82,WNW,296,7.0,18.0,94,0.09,,,0.31,Wunderground v.1.15,2013-03-06 21:11:00,
2013-03-06 16:16:00,36.4,34.8,29.82,WNW,300,7.0,22.0,94,0.08,,,0.32,Wunderground v.1.15,2013-03-06 21:16:00,
2013-03-06 16:21:00,36.5,34.7,29.83,WNW,290,8.0,15.0,93,0.08,,,0.32,Wunderground v.1.15,2013-03-06 21:21:00,
2013-03-06 16:26:00,36.5,34.7,29.83,West,269,6.0,19.0,93,0.09,,,0.33,Wunderground v.1.15,2013-03-06 21:26:00,
2013-03-06 16:32:00,36.5,34.7,29.84,WSW,244,11.0,24.0,93,0.09,,,0.34,Wunderground v.1.15,2013-03-06 21:32:00,
2013-03-06 16:37:00,36.5,34.7,29.84,West,278,9.0,24.0,93,0.09,,,0.35,Wunderground v.1.15,2013-03-06 21:37:00,
2013-03-06 16:42:00,36.5,34.7,29.85,WNW,301,10.0,20.0,93,0.10,,,0.36,Wunderground v.1.15,2013-03-06 21:42:00,
2013-03-06 16:47:00,36.5,34.7,29.86,WNW,283,14.0,23.0,93,0.10,,,0.36,Wunderground v.1.15,2013-03-06 21:47:00,
2013-03-06 16:52:00,36.6,34.8,29.86,WNW,284,7.0,19.0,93,0.10,,,0.37,Wunderground v.1.15,2013-03-06 21:52:00,
2013-03-06 16:57:00,36.6,34.8,29.87,WNW,294,15.0,19.0,93,0.10,,,0.38,Wunderground v.1.15,2013-03-06 21:57:00,
2013-03-06 17:02:00,36.6,34.8,29.87,West,276,13.0,24.0,93,0.09,,,0.39,Wunderground v.1.15,2013-03-06 22:02:00,
2013-03-06 17:07:00,36.6,34.8,29.88,NW,304,5.0,24.0,93,0.10,,,0.40,Wunderground v.1.15,2013-03-06 22:07:00,
2013-03-06 17:12:00,36.6,34.8,29.88,West,263,6.0,17.0,93,0.10,,,0.40,Wunderground v.1.15,2013-03-06 22:12:00,
2013-03-06 17:17:00,36.6,34.8,29.88,WNW,291,12.0,18.0,93,0.08,,,0.41,Wunderground v.1.15,2013-03-06 22:17:00,
2013-03-06 17:22:00,36.5,34.7,29.89,West,279,5.0,26.0,93,0.08,,,0.42,Wunderground v.1.15,2013-03-06 22:22:00,
2013-03-06 17:27:00,36.4,34.6,29.89,WNW,294,11.0,26.0,93,0.08,,,0.42,Wunderground v.1.15,2013-03-06 22:27:00,
2013-03-06 17:32:00,36.3,34.5,29.89,WNW,291,9.0,17.0,93,0.08,,,0.43,Wunderground v.1.15,2013-03-06 22:32:00,
2013-03-06 17:37:00,36.3,34.5,29.90,West,270,9.0,18.0,93,0.08,,,0.44,Wunderground v.1.15,2013-03-06 22:37:00,
2013-03-06 17:42:00,36.3,34.5,29.90,WSW,255,6.0,16.0,93,0.08,,,0.44,Wunderground v.1.15,2013-03-06 22:42:00,
2013-03-06 17:47:00,36.4,34.6,29.91,West,273,4.0,20.0,93,0.07,,,0.45,Wunderground v.1.15,2013-03-06 22:47:00,
2013-03-06 17:52:00,36.3,34.5,29.91,WNW,284,7.0,11.0,93,0.07,,,0.45,Wunderground v.1.15,2013-03-06 22:52:00,
2013-03-06 17:57:00,36.3,34.5,29.92,WNW,291,7.0,16.0,93,0.07,,,0.46,Wunderground v.1.15,2013-03-06 22:57:00,
2013-03-06 18:02:00,36.3,34.5,29.92,NW,315,8.0,14.0,93,0.07,,,0.47,Wunderground v.1.15,2013-03-06 23:02:00,
2013-03-06 18:07:00,36.3,34.5,29.93,West,271,11.0,15.0,93,0.07,,,0.47,Wunderground v.1.15,2013-03-06 23:07:00,
2013-03-06 18:12:00,36.3,34.5,29.93,NNW,330,7.0,20.0,93,0.06,,,0.48,Wunderground v.1.15,2013-03-06 23:12:00,
2013-03-06 18:17:00,36.4,34.6,29.94,West,270,13.0,20.0,93,0.06,,,0.48,Wunderground v.1.15,2013-03-06 23:17:00,
2013-03-06 18:22:00,36.4,34.6,29.94,WNW,292,9.0,18.0,93,0.06,,,0.49,Wunderground v.1.15,2013-03-06 23:22:00,
2013-03-06 18:27:00,36.4,34.6,29.94,West,281,6.0,18.0,93,0.06,,,0.49,Wunderground v.1.15,2013-03-06 23:27:00,
2013-03-06 18:32:00,36.5,34.7,29.94,WNW,290,4.0,10.0,93,0.07,,,0.50,Wunderground v.1.15,2013-03-06 23:32:00,
2013-03-06 18:37:00,36.5,34.9,29.95,NW,304,11.0,15.0,94,0.07,,,0.50,Wunderground v.1.15,2013-03-06 23:37:00,
2013-03-06 18:42:00,36.5,34.7,29.95,WNW,292,6.0,11.0,93,0.06,,,0.51,Wunderground v.1.15,2013-03-06 23:42:00,
2013-03-06 18:47:00,36.6,35.0,29.96,West,275,8.0,16.0,94,0.06,,,0.51,Wunderground v.1.15,2013-03-06 23:47:00,
2013-03-06 18:52:00,36.6,35.0,29.96,NW,325,16.0,16.0,94,0.06,,,0.52,Wunderground v.1.15,2013-03-06 23:52:00,
2013-03-06 18:57:00,36.7,35.1,29.96,WNW,287,8.0,16.0,94,0.06,,,0.52,Wunderground v.1.15,2013-03-06 23:57:00,
2013-03-06 19:03:00,36.7,35.1,29.97,West,279,7.0,15.0,94,0.06,,,0.53,Wunderground v.1.15,2013-03-07 00:03:00,
2013-03-06 19:08:00,36.8,35.2,29.97,WNW,288,10.0,15.0,94,0.07,,,0.54,Wunderground v.1.15,2013-03-07 00:08:00,
2013-03-06 19:13:00,36.8,35.0,29.97,WNW,284,11.0,12.0,93,0.07,,,0.54,Wunderground v.1.15,2013-03-07 00:13:00,
2013-03-06 19:18:00,36.9,35.1,29.97,WNW,282,8.0,14.0,93,0.06,,,0.55,Wunderground v.1.15,2013-03-07 00:18:00,
2013-03-06 19:23:00,36.9,35.1,29.97,West,276,5.0,14.0,93,0.06,,,0.55,Wunderground v.1.15,2013-03-07 00:23:00,
2013-03-06 19:28:00,36.9,35.1,29.97,WNW,298,6.0,14.0,93,0.06,,,0.56,Wunderground v.1.15,2013-03-07 00:28:00,
2013-03-06 19:33:00,37.0,35.2,29.97,West,279,5.0,9.0,93,0.06,,,0.56,Wunderground v.1.15,2013-03-07 00:33:00,
2013-03-06 19:38:00,37.1,35.3,29.97,West,263,14.0,22.0,93,0.05,,,0.56,Wunderground v.1.15,2013-03-07 00:38:00,
2013-03-06 19:43:00,37.2,35.4,29.97,WSW,252,6.0,14.0,93,0.04,,,0.57,Wunderground v.1.15,2013-03-07 00:43:00,
2013-03-06 19:48:00,37.2,35.1,29.97,WNW,282,5.0,16.0,92,0.04,,,0.57,Wunderground v.1.15,2013-03-07 00:48:00,
2013-03-06 19:53:00,37.2,35.1,29.97,WNW,286,6.0,12.0,92,0.04,,,0.57,Wunderground v.1.15,2013-03-07 00:53:00,
2013-03-06 19:58:00,37.3,35.2,29.97,West,260,11.0,12.0,92,0.05,,,0.58,Wunderground v.1.15,2013-03-07 00:58:00,
2013-03-06 20:03:00,37.3,35.2,29.97,West,277,6.0,14.0,92,0.05,,,0.58,Wunderground v.1.15,2013-03-07 01:03:00,
2013-03-06 20:08:00,37.3,35.2,29.97,West,281,8.0,14.0,92,0.04,,,0.58,Wunderground v.1.15,2013-03-07 01:08:00,
2013-03-06 20:13:00,37.3,35.2,29.97,West,278,10.0,13.0,92,0.04,,,0.59,Wunderground v.1.15,2013-03-07 01:13:00,
2013-03-06 20:18:00,37.4,35.3,29.98,WNW,295,7.0,13.0,92,0.04,,,0.59,Wunderground v.1.15,2013-03-07 01:18:00,
2013-03-06 20:23:00,37.5,35.1,29.98,WSW,256,12.0,15.0,91,0.04,,,0.59,Wunderground v.1.15,2013-03-07 01:23:00,
2013-03-06 20:28:00,37.5,35.1,29.98,WNW,285,3.0,15.0,91,0.04,,,0.60,Wunderground v.1.15,2013-03-07 01:28:00,
2013-03-06 20:33:00,37.5,35.1,29.98,NNW,335,9.0,13.0,91,0.04,,,0.60,Wunderground v.1.15,2013-03-07 01:33:00,
2013-03-06 20:38:00,37.5,34.8,29.98,NNW,335,5.0,13.0,90,0.04,,,0.60,Wunderground v.1.15,2013-03-07 01:38:00,
2013-03-06 20:43:00,37.4,34.7,29.98,West,275,5.0,14.0,90,0.04,,,0.61,Wunderground v.1.15,2013-03-07 01:43:00,
2013-03-06 20:48:00,37.5,34.8,29.98,WNW,303,3.0,14.0,90,0.04,,,0.61,Wunderground v.1.15,2013-03-07 01:48:00,
2013-03-06 20:53:00,37.6,34.7,29.98,WNW,287,6.0,11.0,89,0.04,,,0.61,Wunderground v.1.15,2013-03-07 01:53:00,
2013-03-06 20:58:00,37.7,34.8,29.98,West,275,8.0,13.0,89,0.00,,,0.61,Wunderground v.1.15,2013-03-07 01:58:00,
2013-03-06 21:03:00,37.6,34.4,29.98,WNW,300,4.0,9.0,88,0.00,,,0.62,Wunderground v.1.15,2013-03-07 02:03:00,
2013-03-06 21:08:00,37.5,34.3,29.98,West,281,7.0,11.0,88,0.00,,,0.62,Wunderground v.1.15,2013-03-07 02:08:00,
2013-03-06 21:13:00,37.5,34.3,29.98,NW,312,5.0,12.0,88,0.00,,,0.62,Wunderground v.1.15,2013-03-07 02:13:00,
2013-03-06 21:18:00,37.4,34.2,29.98,WNW,294,3.0,12.0,88,0.00,,,0.62,Wunderground v.1.15,2013-03-07 02:18:00,
2013-03-06 21:23:00,37.3,34.1,29.99,West,281,3.0,8.0,88,0.00,,,0.62,Wunderground v.1.15,2013-03-07 02:23:00,
2013-03-06 21:28:00,37.3,34.1,29.98,WNW,298,5.0,10.0,88,0.00,,,0.62,Wunderground v.1.15,2013-03-07 02:28:00,
2013-03-06 21:33:00,37.2,34.0,29.98,WNW,292,9.0,11.0,88,0.00,,,0.62,Wunderground v.1.15,2013-03-07 02:33:00,
2013-03-06 21:38:00,37.3,34.1,29.98,West,269,8.0,13.0,88,0.00,,,0.63,Wunderground v.1.15,2013-03-07 02:38:00,
2013-03-06 21:43:00,37.3,34.1,29.98,West,261,7.0,10.0,88,0.00,,,0.63,Wunderground v.1.15,2013-03-07 02:43:00,
2013-03-06 21:48:00,37.3,33.8,29.99,West,271,7.0,10.0,87,0.00,,,0.63,Wunderground v.1.15,2013-03-07 02:48:00,
2013-03-06 21:53:00,37.2,33.7,29.99,NW,313,7.0,13.0,87,0.00,,,0.63,Wunderground v.1.15,2013-03-07 02:53:00,
2013-03-06 21:58:00,37.3,33.8,29.99,West,277,5.0,13.0,87,0.00,,,0.63,Wunderground v.1.15,2013-03-07 02:58:00,
2013-03-06 22:03:00,37.4,33.6,29.99,WNW,298,4.0,15.0,86,0.00,,,0.63,Wunderground v.1.15,2013-03-07 03:03:00,
2013-03-06 22:08:00,37.5,33.7,30.00,WNW,283,8.0,15.0,86,0.00,,,0.63,Wunderground v.1.15,2013-03-07 03:08:00,
2013-03-06 22:13:00,37.6,33.5,30.00,West,266,7.0,13.0,85,0.00,,,0.63,Wunderground v.1.15,2013-03-07 03:13:00,
2013-03-06 22:18:00,37.6,33.2,30.00,West,270,6.0,13.0,84,0.00,,,0.64,Wunderground v.1.15,2013-03-07 03:18:00,
2013-03-06 22:24:00,37.5,33.1,30.00,WNW,284,6.0,13.0,84,0.00,,,0.64,Wunderground v.1.15,2013-03-07 03:24:00,
2013-03-06 22:29:00,37.5,33.1,30.00,WNW,291,8.0,13.0,84,0.00,,,0.64,Wunderground v.1.15,2013-03-07 03:29:00,
2013-03-06 22:34:00,37.5,33.1,30.01,NW,322,6.0,13.0,84,0.00,,,0.64,Wunderground v.1.15,2013-03-07 03:34:00,
2013-03-06 22:39:00,37.4,33.0,30.01,WNW,302,8.0,13.0,84,0.00,,,0.64,Wunderground v.1.15,2013-03-07 03:39:00,
2013-03-06 22:44:00,37.4,33.0,30.01,West,269,6.0,16.0,84,0.00,,,0.64,Wunderground v.1.15,2013-03-07 03:44:00,
2013-03-06 22:49:00,37.3,32.9,30.01,WNW,290,5.0,16.0,84,0.00,,,0.64,Wunderground v.1.15,2013-03-07 03:49:00,
2013-03-06 22:54:00,37.2,33.1,30.01,West,268,4.0,10.0,85,0.00,,,0.64,Wunderground v.1.15,2013-03-07 03:54:00,
2013-03-06 22:59:00,37.1,33.0,30.02,West,273,8.0,11.0,85,0.00,,,0.64,Wunderground v.1.15,2013-03-07 03:59:00,
2013-03-06 23:04:00,37.1,33.0,30.02,WNW,292,8.0,10.0,85,0.00,,,0.65,Wunderground v.1.15,2013-03-07 04:04:00,
2013-03-06 23:09:00,37.1,33.0,30.02,WNW,284,5.0,10.0,85,0.00,,,0.65,Wunderground v.1.15,2013-03-07 04:09:00,
2013-03-06 23:14:00,37.1,33.0,30.02,WNW,286,6.0,9.0,85,0.00,,,0.65,Wunderground v.1.15,2013-03-07 04:14:00,
2013-03-06 23:19:00,37.0,32.9,30.02,West,276,6.0,13.0,85,0.00,,,0.65,Wunderground v.1.15,2013-03-07 04:19:00,
2013-03-06 23:24:00,37.0,32.9,30.02,West,279,7.0,9.0,85,0.00,,,0.65,Wunderground v.1.15,2013-03-07 04:24:00,
2013-03-06 23:29:00,37.0,32.9,30.02,NW,306,7.0,10.0,85,0.00,,,0.65,Wunderground v.1.15,2013-03-07 04:29:00,
2013-03-06 23:34:00,36.9,32.8,30.02,WSW,255,10.0,10.0,85,0.00,,,0.65,Wunderground v.1.15,2013-03-07 04:34:00,
2013-03-06 23:39:00,36.9,32.8,30.02,West,279,4.0,12.0,85,0.00,,,0.65,Wunderground v.1.15,2013-03-07 04:39:00,
2013-03-06 23:44:00,37.0,32.9,30.02,West,276,8.0,14.0,85,0.00,,,0.66,Wunderground v.1.15,2013-03-07 04:44:00,
2013-03-06 23:49:00,37.1,33.0,30.03,WNW,285,7.0,14.0,85,0.00,,,0.66,Wunderground v.1.15,2013-03-07 04:49:00,
2013-03-06 23:54:00,37.1,32.7,30.03,West,268,7.0,9.0,84,0.00,,,0.66,Wunderground v.1.15,2013-03-07 04:54:00,
2013-03-06 23:59:00,37.1,32.7,30.03,West,269,8.0,9.0,84,0.00,,,0.66,Wunderground v.1.15,2013-03-07 04:59:00,